GCFV Airport Information

Runway Information
Runway 01 Length 11598 ft width 148 ft
Elevation 37 ft Threshold 3481 ft Heading 2
Runway 19 Length 11598 ft Width 148 ft
Elevation 75 ft Threshold 1719 ft Heading 182
Airport Frequencies
Type APP Name CANARIAS A Frequency 129.3 MHZ
Type ATIS Name ATIS Frequency 118.65 MHZ
Type GND Name GND Frequency 121.7 MHZ
Type TWR Name TWR Frequency 118.5 MHZ
Airport Navaids
Type VOR-DME Name Fuerteventura Frequency 114100 KHZ
Airport Weather Information & NOTAM
ADDS - METARS form results

(0606 UTC 31 January 2023)
Data provider http://aviationweather.gov/metar/data/
 
METAR text: GCFV 310600Z 05015KT 9999 FEW035 SCT045 17/10 Q1020
Conditions at: GCFV (FUERTEVENTURA AR, ES) observed 0600 UTC 31 January 2023
Temperature: 17.0°C (63°F)
Dewpoint: 10.0°C (50°F) [RH = 63%]
Pressure (altimeter): 30.12 inches Hg (1020.0 mb)
Winds: from the NE (50 degrees) at 17 MPH (15 knots; 7.7 m/s)
Visibility: 6 or more miles (10+ km)
Ceiling: at least 12,000 feet AGL
Clouds: few clouds at 3500 feet AGL
scattered clouds at 4500 feet AGL
Weather: no significant weather observed at this time

METAR text: GCFV 310530Z AUTO 04013KT 020V080 9999 BKN035 BKN045 17/10 Q1020
Conditions at: GCFV (FUERTEVENTURA AR, ES) observed 0530 UTC 31 January 2023
Temperature: 17.0°C (63°F)
Dewpoint: 10.0°C (50°F) [RH = 63%]
Pressure (altimeter): 30.12 inches Hg (1020.0 mb)
Winds: from the NE (40 degrees) at 15 MPH (13 knots; 6.7 m/s)
Visibility: 6 or more miles (10+ km)
Ceiling: 3500 feet AGL
Clouds: broken clouds at 3500 feet AGL
broken clouds at 4500 feet AGL
Weather: no significant weather observed at this time

Forecast for: GCFV (FUERTEVENTURA AR, ES)
Text: TAF GCFV 310200Z 3103/0103 04012KT 9999 SCT035 TX20/3114Z TN14/3106Z
Forecast period: 0300 to 1500 UTC 31 January 2023
Forecast type: FROM: standard forecast or significant change
Winds: from the NE (40 degrees) at 14 MPH (12 knots; 6.2 m/s)
Visibility: 6 or more miles (10+ km)
Ceiling: at least 12,000 feet AGL
Clouds: scattered clouds at 3500 feet AGL
Weather: no significant weather forecast for this period
Text: PROB30
Forecast period: 0300 to 0500 UTC 31 January 2023
Forecast type: TEMPORARY: The following changes expected for less than half the time period
Winds: from the NNW (340 degrees) at 7 MPH (6 knots; 3.1 m/s)
Visibility: missing
Ceiling: unknown
Clouds: missing
Weather: no significant weather forecast for this period
Text: TEMPO 3103/3105 34006KT
Forecast period: 1500 UTC 31 January 2023 to 0300 UTC 01 February 2023
Forecast type: BECOMING: Conditions expected to become as follows by 1800 UTC 31 January 2023
Winds: from the NNW (330 degrees) at 9 MPH (8 knots; 4.1 m/s)
Visibility: 6 or more miles (10+ km)
Ceiling: at least 12,000 feet AGL
Clouds: scattered clouds at 3500 feet AGL
Weather: no significant weather forecast for this period